Time;durP1;ratioP1;P1;durP2;ratioP2;P2;SDS_P1;SDS_P2;PMS_P1;PMS_P2;Temp;Humidity;BMP_temperature;BMP_pressure;BME280_temperature;BME280_humidity;BME280_pressure;Samples;Min_cycle;Max_cycle;Signal;HPM_P1;HPM_P2
2021/09/01 00:02:16;;;;;;;16.45;5.20;;;15.40;99.90;;;;;;5036591;28;20041;-69
2021/09/01 00:04:42;;;;;;;8.18;4.28;;;15.40;99.90;;;;;;5042066;28;20041;-69
2021/09/01 00:07:07;;;;;;;17.60;5.07;;;15.40;99.90;;;;;;5034629;28;20034;-69
2021/09/01 00:09:33;;;;;;;19.80;5.28;;;15.40;99.90;;;;;;5043518;28;20516;-69
2021/09/01 00:11:59;;;;;;;19.30;5.45;;;15.40;99.90;;;;;;5031598;28;20044;-69
2021/09/01 00:14:25;;;;;;;18.95;4.93;;;15.50;99.90;;;;;;5039008;28;20052;-69
2021/09/01 00:16:51;;;;;;;19.58;5.18;;;15.40;99.90;;;;;;5031874;28;20033;-69
2021/09/01 00:19:17;;;;;;;18.30;4.45;;;15.40;99.90;;;;;;5038565;28;20556;-69
2021/09/01 00:21:42;;;;;;;19.25;5.82;;;15.40;99.90;;;;;;5030329;28;20046;-69
2021/09/01 00:24:08;;;;;;;16.70;5.30;;;15.40;99.90;;;;;;5038574;28;20073;-69
2021/09/01 00:26:35;;;;;;;16.83;4.82;;;15.40;99.90;;;;;;5032343;28;20129;-69
2021/09/01 00:29:00;;;;;;;19.13;4.90;;;15.30;99.90;;;;;;5037120;28;20544;-69
2021/09/01 00:31:26;;;;;;;22.40;5.60;;;15.30;99.90;;;;;;5033963;28;20038;-68
2021/09/01 00:33:53;;;;;;;27.08;6.15;;;15.30;99.90;;;;;;5035176;28;20057;-69
2021/09/01 00:36:19;;;;;;;17.10;4.75;;;15.30;99.90;;;;;;5038143;28;20099;-69
2021/09/01 00:38:46;;;;;;;16.88;4.53;;;15.30;99.90;;;;;;5037813;28;20493;-69
2021/09/01 00:41:15;;;;;;;13.65;4.60;;;15.30;99.90;;;;;;5037010;28;20053;-69
2021/09/01 00:43:41;;;;;;;27.27;5.43;;;15.30;99.90;;;;;;5031365;28;20139;-69
2021/09/01 00:46:08;;;;;;;10.35;4.50;;;15.40;99.90;;;;;;5038332;28;20034;-69
2021/09/01 00:48:33;;;;;;;16.20;5.13;;;15.40;99.90;;;;;;5031417;28;20038;-68
2021/09/01 00:50:59;;;;;;;20.77;5.35;;;15.40;99.90;;;;;;5069641;28;20048;-69
2021/09/01 00:53:37;;;;;;;16.55;4.53;;;15.40;99.90;;;;;;5030816;28;20041;-69
2021/09/01 00:56:03;;;;;;;;;;;15.40;99.90;;;;;;5038557;28;20046;-69
2021/09/01 00:58:35;;;;;;;18.55;5.30;;;15.40;99.90;;;;;;5035809;28;19975;-69
2021/09/01 01:01:15;;;;;;;21.83;5.82;;;15.40;99.90;;;;;;5041961;28;20053;-69
2021/09/01 01:03:42;;;;;;;23.67;4.57;;;15.40;99.90;;;;;;5035047;28;20082;-69
2021/09/01 01:06:08;;;;;;;20.13;4.65;;;15.40;99.90;;;;;;5043309;28;20042;-69
2021/09/01 01:08:33;;;;;;;18.15;5.07;;;15.40;99.90;;;;;;5077455;28;20049;-69
2021/09/01 01:11:00;;;;;;;16.10;5.13;;;15.40;99.90;;;;;;5037294;28;20048;-69
2021/09/01 01:13:27;;;;;;;16.98;4.78;;;15.40;99.90;;;;;;5043838;28;20053;-69
2021/09/01 01:15:54;;;;;;;22.35;4.43;;;15.40;99.90;;;;;;5047322;28;20068;-69
2021/09/01 01:18:20;;;;;;;21.17;4.78;;;15.40;99.90;;;;;;5043752;28;20400;-69
2021/09/01 01:20:50;;;;;;;21.13;4.75;;;15.40;99.90;;;;;;5035336;28;20037;-69
2021/09/01 01:23:17;;;;;;;15.63;4.60;;;15.40;99.90;;;;;;5043053;28;20049;-69
2021/09/01 01:25:43;;;;;;;18.33;4.78;;;15.40;99.90;;;;;;5035591;28;20041;-69
2021/09/01 01:28:10;;;;;;;14.45;4.50;;;15.40;99.90;;;;;;5042410;28;20045;-69
2021/09/01 01:30:37;;;;;;;16.92;5.13;;;15.30;99.90;;;;;;5035454;28;20045;-69
2021/09/01 01:33:03;;;;;;;15.57;5.10;;;15.30;99.90;;;;;;5042181;28;20072;-69
2021/09/01 01:35:35;;;;;;;16.70;5.40;;;15.30;99.90;;;;;;5034353;28;20057;-69
2021/09/01 01:38:03;;;;;;;22.35;5.45;;;15.30;99.90;;;;;;5042388;28;20052;-69
2021/09/01 01:40:30;;;;;;;17.30;6.13;;;15.30;99.90;;;;;;5033433;28;20129;-69
2021/09/01 01:42:55;;;;;;;14.27;4.70;;;15.30;99.90;;;;;;5035494;28;20038;-69
2021/09/01 01:45:23;;;;;;;16.70;4.55;;;15.20;99.90;;;;;;5035528;28;20053;-69
2021/09/01 01:47:49;;;;;;;16.20;5.63;;;15.20;99.90;;;;;;5041386;28;20046;-69
2021/09/01 01:50:15;;;;;;;17.52;5.65;;;15.20;99.90;;;;;;5035949;28;20046;-69
2021/09/01 01:52:41;;;;;;;20.88;5.22;;;15.20;99.90;;;;;;5038648;28;20119;-70
2021/09/01 01:55:09;;;;;;;17.73;5.80;;;15.20;99.90;;;;;;5038002;28;20110;-69
2021/09/01 01:57:35;;;;;;;28.00;5.50;;;15.20;99.90;;;;;;5037066;28;20038;-69
2021/09/01 02:00:03;;;;;;;10.13;4.47;;;15.10;99.90;;;;;;5039759;28;20053;-69
2021/09/01 02:02:32;;;;;;;16.40;5.72;;;15.10;99.90;;;;;;5034930;28;20049;-69
2021/09/01 02:04:58;;;;;;;14.70;4.40;;;15.10;99.90;;;;;;5040611;28;20050;-69
2021/09/01 02:07:25;;;;;;;20.65;5.13;;;15.00;99.90;;;;;;5033846;28;20105;-69
2021/09/01 02:09:51;;;;;;;23.00;4.43;;;15.10;99.90;;;;;;5042036;28;20042;-69
2021/09/01 02:12:17;;;;;;;17.10;4.82;;;15.10;99.90;;;;;;5043303;28;20098;-70
2021/09/01 02:14:43;;;;;;;17.33;4.25;;;15.10;99.90;;;;;;5036556;28;20052;-69
2021/09/01 02:17:09;;;;;;;19.85;4.45;;;15.10;99.90;;;;;;5044444;28;20101;-69
2021/09/01 02:19:34;;;;;;;18.20;5.00;;;15.10;99.90;;;;;;5038242;28;20099;-69
2021/09/01 02:22:00;;;;;;;17.42;4.63;;;15.20;99.90;;;;;;5047889;28;20511;-69
2021/09/01 02:24:26;;;;;;;11.73;4.28;;;15.20;99.90;;;;;;5051673;28;20037;-69
2021/09/01 02:26:51;;;;;;;18.02;4.78;;;15.10;99.90;;;;;;5045723;28;20037;-69
2021/09/01 02:29:17;;;;;;;17.40;5.55;;;15.20;99.90;;;;;;5037477;28;20041;-69
2021/09/01 02:31:43;;;;;;;14.13;4.22;;;15.20;99.90;;;;;;5057450;28;20041;-69
2021/09/01 02:34:09;;;;;;;17.23;4.28;;;15.20;99.90;;;;;;5038791;28;20060;-69
2021/09/01 02:36:35;;;;;;;14.63;4.90;;;15.20;99.90;;;;;;5055555;28;20075;-69
2021/09/01 02:39:00;;;;;;;16.17;4.60;;;15.20;99.90;;;;;;5041358;28;20044;-69
2021/09/01 02:41:26;;;;;;;15.18;4.80;;;15.20;99.90;;;;;;5057943;28;20037;-69
2021/09/01 02:43:52;;;;;;;17.85;4.30;;;15.20;99.90;;;;;;5043779;28;20056;-69
2021/09/01 02:46:19;;;;;;;15.20;4.20;;;15.20;99.90;;;;;;5049465;28;20052;-69
2021/09/01 02:48:45;;;;;;;20.13;4.60;;;15.30;99.90;;;;;;5038112;28;20042;-69
2021/09/01 02:51:11;;;;;;;17.50;5.53;;;15.20;99.90;;;;;;5046106;28;20037;-69
2021/09/01 02:53:37;;;;;;;17.40;6.13;;;15.20;99.90;;;;;;5046468;28;20391;-69
2021/09/01 02:56:03;;;;;;;14.43;4.65;;;15.30;99.90;;;;;;5051217;28;20041;-69
2021/09/01 02:58:29;;;;;;;12.25;4.07;;;15.30;99.90;;;;;;5050003;28;20126;-69
2021/09/01 03:00:55;;;;;;;17.90;4.93;;;15.30;99.90;;;;;;5046639;28;20045;-69
2021/09/01 03:03:20;;;;;;;16.67;4.68;;;15.30;99.90;;;;;;5053454;28;20050;-69
2021/09/01 03:05:46;;;;;;;17.33;4.38;;;15.30;99.90;;;;;;5031863;28;20519;-69
2021/09/01 03:08:12;;;;;;;18.63;4.80;;;15.20;99.90;;;;;;5056555;28;20125;-69
2021/09/01 03:10:37;;;;;;;16.48;5.03;;;15.30;99.90;;;;;;5041904;28;20104;-69
2021/09/01 03:13:03;;;;;;;19.40;6.35;;;15.30;99.90;;;;;;5056752;28;20309;-69
2021/09/01 03:15:29;;;;;;;14.63;4.45;;;15.30;99.90;;;;;;5033914;28;20069;-69
2021/09/01 03:17:55;;;;;;;21.25;4.88;;;15.30;99.90;;;;;;5041311;28;20048;-69
2021/09/01 03:20:21;;;;;;;20.05;5.20;;;15.30;99.90;;;;;;5039803;28;20059;-69
2021/09/01 03:22:46;;;;;;;11.02;4.53;;;15.30;99.90;;;;;;5039129;28;20115;-69
2021/09/01 03:25:12;;;;;;;13.95;4.68;;;15.30;99.90;;;;;;5036985;28;20040;-69
2021/09/01 03:27:38;;;;;;;16.45;4.45;;;15.20;99.90;;;;;;5052504;28;20037;-70
2021/09/01 03:30:04;;;;;;;16.13;5.00;;;15.20;99.90;;;;;;5034380;28;20060;-69
2021/09/01 03:32:30;;;;;;;14.65;4.22;;;15.20;99.90;;;;;;5047073;28;20049;-70
2021/09/01 03:34:56;;;;;;;17.92;4.60;;;15.20;99.90;;;;;;5050464;28;20053;-69
2021/09/01 03:37:23;;;;;;;19.65;5.50;;;15.10;99.90;;;;;;5043053;28;20041;-69
2021/09/01 03:39:49;;;;;;;14.95;4.40;;;15.10;99.90;;;;;;5044953;28;20050;-69
2021/09/01 03:42:15;;;;;;;12.48;3.80;;;15.10;99.90;;;;;;5047288;28;20045;-69
2021/09/01 03:44:41;;;;;;;25.00;5.57;;;15.10;99.90;;;;;;5062967;28;20056;-69
2021/09/01 03:47:06;;;;;;;16.95;4.90;;;15.10;99.90;;;;;;5049099;28;20337;-69
2021/09/01 03:49:32;;;;;;;12.75;5.00;;;15.10;99.90;;;;;;5063102;28;20041;-69
2021/09/01 03:51:58;;;;;;;17.73;4.93;;;15.10;99.90;;;;;;5047763;28;20030;-69
2021/09/01 03:54:24;;;;;;;16.80;4.68;;;15.10;99.90;;;;;;5062143;28;20500;-69
2021/09/01 03:56:50;;;;;;;15.10;4.82;;;15.10;99.90;;;;;;5050130;28;20109;-69
2021/09/01 03:59:15;;;;;;;18.33;4.60;;;15.10;99.90;;;;;;5060528;28;20562;-69
2021/09/01 04:01:41;;;;;;;20.02;5.03;;;15.10;99.90;;;;;;5053282;28;20042;-69
2021/09/01 04:04:07;;;;;;;17.73;4.57;;;15.10;99.90;;;;;;5055420;28;20037;-69
2021/09/01 04:06:33;;;;;;;21.30;5.20;;;15.10;99.90;;;;;;5056319;28;20041;-69
2021/09/01 04:08:59;;;;;;;19.40;5.10;;;15.20;99.90;;;;;;5051281;28;20042;-69
2021/09/01 04:11:25;;;;;;;14.30;5.40;;;15.20;99.90;;;;;;5060082;28;20074;-69
2021/09/01 04:13:51;;;;;;;13.98;4.57;;;15.20;99.90;;;;;;5049383;28;20100;-69
2021/09/01 04:16:17;;;;;;;14.25;4.15;;;15.20;99.90;;;;;;5058837;28;20081;-69
2021/09/01 04:18:43;;;;;;;26.30;6.43;;;15.20;99.90;;;;;;5047710;28;20105;-70
2021/09/01 04:21:08;;;;;;;19.83;5.50;;;15.20;99.90;;;;;;5059684;28;20061;-70
2021/09/01 04:23:34;;;;;;;13.05;5.45;;;15.20;99.90;;;;;;5041320;28;20537;-69
2021/09/01 04:26:00;;;;;;;16.75;4.97;;;15.20;99.90;;;;;;5050055;28;20049;-69
2021/09/01 04:28:26;;;;;;;18.48;5.15;;;15.20;99.90;;;;;;5037880;28;20037;-70
2021/09/01 04:30:51;;;;;;;15.88;4.25;;;15.20;99.90;;;;;;5051326;28;20056;-69
2021/09/01 04:33:17;;;;;;;15.75;4.65;;;15.20;99.90;;;;;;5036882;28;20046;-69
2021/09/01 04:35:43;;;;;;;18.00;4.60;;;15.20;99.90;;;;;;5050350;28;20412;-69
2021/09/01 04:38:09;;;;;;;16.77;4.60;;;15.20;99.90;;;;;;5038205;28;20049;-69
2021/09/01 04:40:35;;;;;;;12.35;4.30;;;15.20;99.90;;;;;;5037538;28;20119;-71
2021/09/01 04:43:01;;;;;;;22.88;5.30;;;15.20;99.90;;;;;;5033760;28;20122;-69
2021/09/01 04:45:26;;;;;;;14.25;4.40;;;15.20;99.90;;;;;;5041736;28;20354;-69
2021/09/01 04:47:53;;;;;;;17.67;4.70;;;15.20;99.90;;;;;;5046760;28;20041;-69
2021/09/01 04:50:19;;;;;;;17.98;5.13;;;15.20;99.90;;;;;;5046285;28;20391;-69
2021/09/01 04:52:44;;;;;;;18.48;4.63;;;15.20;99.90;;;;;;5036439;28;20045;-69
2021/09/01 04:55:11;;;;;;;14.93;4.60;;;15.20;99.90;;;;;;5037149;28;20052;-69
2021/09/01 04:57:37;;;;;;;17.17;5.22;;;15.20;99.90;;;;;;5043258;28;20053;-69
2021/09/01 05:00:05;;;;;;;17.48;5.50;;;15.20;99.90;;;;;;5045511;28;20046;-69
2021/09/01 05:02:31;;;;;;;15.55;4.68;;;15.20;99.90;;;;;;5054861;28;20100;-69
2021/09/01 05:04:56;;;;;;;24.58;4.47;;;15.20;99.90;;;;;;5040728;28;20501;-69
2021/09/01 05:07:22;;;;;;;16.98;4.57;;;15.20;99.90;;;;;;5053238;28;20126;-70
2021/09/01 05:09:48;;;;;;;15.63;4.47;;;15.30;99.90;;;;;;5047213;28;20064;-69
2021/09/01 05:12:13;;;;;;;19.42;5.82;;;15.30;99.90;;;;;;5037403;28;20077;-69
2021/09/01 05:14:39;;;;;;;19.27;4.82;;;15.30;99.90;;;;;;5049663;28;20048;-69
2021/09/01 05:17:05;;;;;;;16.48;5.22;;;15.30;99.90;;;;;;5048539;28;20048;-69
2021/09/01 05:19:30;;;;;;;13.60;4.57;;;15.30;99.90;;;;;;5061438;28;20045;-69
2021/09/01 05:22:03;;;;;;;11.00;4.05;;;15.30;99.90;;;;;;5047251;28;20052;-69
2021/09/01 05:24:50;;;;;;;15.80;4.25;;;15.30;99.90;;;;;;5048931;28;20103;-69
2021/09/01 05:27:21;;;;;;;14.40;5.53;;;15.40;99.90;;;;;;5039841;28;20045;-71
2021/09/01 05:29:49;;;;;;;16.58;5.88;;;15.40;99.90;;;;;;5038391;28;20045;-69
2021/09/01 05:32:30;;;;;;;15.60;5.20;;;15.40;99.90;;;;;;5038560;28;20067;-69
2021/09/01 05:34:58;;;;;;;17.65;4.35;;;15.50;99.90;;;;;;5048062;28;20545;-69
2021/09/01 05:37:24;;;;;;;18.30;5.95;;;15.40;99.90;;;;;;5062971;28;20045;-70
2021/09/01 05:39:54;;;;;;;12.05;4.88;;;15.50;99.90;;;;;;5052551;28;20041;-69
2021/09/01 05:42:23;;;;;;;19.15;4.35;;;15.50;99.90;;;;;;5037752;28;20045;-69
2021/09/01 05:44:50;;;;;;;22.48;5.32;;;15.60;99.90;;;;;;5040920;28;20109;-69
2021/09/01 05:47:18;;;;;;;19.27;4.85;;;15.60;99.90;;;;;;5039941;28;20046;-69
2021/09/01 05:49:46;;;;;;;17.13;5.63;;;15.60;99.90;;;;;;5054894;28;20049;-69
2021/09/01 05:52:13;;;;;;;15.25;4.18;;;15.60;99.90;;;;;;5039949;28;20112;-69
2021/09/01 05:54:40;;;;;;;19.02;5.47;;;15.60;99.90;;;;;;5054052;28;20074;-69
2021/09/01 05:57:11;;;;;;;14.15;4.35;;;15.60;99.90;;;;;;5035250;28;20041;-69
2021/09/01 06:00:02;;;;;;;24.67;5.80;;;15.60;99.90;;;;;;5053991;28;20057;-69
2021/09/01 06:02:43;;;;;;;14.77;4.88;;;15.60;99.90;;;;;;5039850;28;20051;-69
2021/09/01 06:05:10;;;;;;;17.67;4.93;;;15.70;99.90;;;;;;5037718;28;20125;-69
2021/09/01 06:07:50;;;;;;;19.13;5.23;;;15.70;99.90;;;;;;5057167;28;20103;-69
2021/09/01 06:10:20;;;;;;;17.40;4.90;;;15.70;99.90;;;;;;5066634;28;20313;-69
2021/09/01 06:12:47;;;;;;;24.20;5.38;;;15.70;99.90;;;;;;5038654;28;20106;-69
2021/09/01 06:15:13;;;;;;;15.20;4.57;;;15.70;99.90;;;;;;5052482;28;20057;-69
2021/09/01 06:17:38;;;;;;;11.25;5.10;;;15.70;99.90;;;;;;5038574;28;20057;-70
2021/09/01 06:20:05;;;;;;;15.40;4.45;;;15.70;99.90;;;;;;5052232;28;20037;-69
2021/09/01 06:22:32;;;;;;;18.27;4.82;;;15.70;99.90;;;;;;5037228;28;20042;-69
2021/09/01 06:24:57;;;;;;;14.23;5.18;;;15.80;99.90;;;;;;5041404;28;20065;-69
2021/09/01 06:27:23;;;;;;;12.68;4.85;;;15.80;99.90;;;;;;5057684;28;20386;-69
2021/09/01 06:29:49;;;;;;;18.90;4.50;;;15.80;99.90;;;;;;5043405;28;20050;-69
2021/09/01 06:32:14;;;;;;;15.45;5.10;;;15.80;99.90;;;;;;5057209;28;20051;-69
2021/09/01 06:34:40;;;;;;;18.77;4.75;;;15.90;99.90;;;;;;5045375;28;20354;-69
2021/09/01 06:37:06;;;;;;;20.65;6.55;;;15.90;99.90;;;;;;5053131;28;20513;-70
2021/09/01 06:39:32;;;;;;;16.65;5.10;;;15.90;99.90;;;;;;5048796;28;20038;-69
2021/09/01 06:41:58;;;;;;;16.35;4.88;;;16.00;99.90;;;;;;5046822;28;20049;-69
2021/09/01 06:44:23;;;;;;;22.05;4.57;;;16.00;99.90;;;;;;5045344;28;20041;-69
2021/09/01 06:46:49;;;;;;;15.60;4.47;;;16.00;99.90;;;;;;5049676;28;20049;-69
2021/09/01 06:49:14;;;;;;;15.73;5.18;;;16.00;99.90;;;;;;5054444;28;20153;-69
2021/09/01 06:51:40;;;;;;;16.95;5.22;;;16.10;99.90;;;;;;5034242;28;20136;-69
2021/09/01 06:54:06;;;;;;;17.67;4.82;;;16.20;99.90;;;;;;5056742;28;20115;-69
2021/09/01 06:56:32;;;;;;;16.90;4.63;;;16.20;99.90;;;;;;5042853;28;20047;-70
2021/09/01 06:58:58;;;;;;;15.60;5.13;;;16.30;99.90;;;;;;5056278;28;20099;-69
2021/09/01 07:01:24;;;;;;;17.40;5.70;;;16.40;99.90;;;;;;5033043;28;20079;-69
2021/09/01 07:03:53;;;;;;;16.88;4.53;;;16.40;99.90;;;;;;5040911;28;20404;-69
2021/09/01 07:06:19;;;;;;;17.27;5.78;;;16.50;99.90;;;;;;5042667;28;20133;-70
2021/09/01 07:08:46;;;;;;;16.77;4.70;;;16.50;99.90;;;;;;5043026;28;20037;-70
2021/09/01 07:11:11;;;;;;;21.58;5.72;;;16.50;99.90;;;;;;5041942;28;20045;-70
2021/09/01 07:13:37;;;;;;;15.23;4.05;;;16.60;99.90;;;;;;5032817;28;20037;-69
2021/09/01 07:16:03;;;;;;;19.45;5.25;;;16.60;99.90;;;;;;5038634;28;20048;-69
2021/09/01 07:18:29;;;;;;;14.88;4.70;;;16.70;99.90;;;;;;5039733;28;20686;-69
2021/09/01 07:20:55;;;;;;;20.85;4.82;;;16.70;99.90;;;;;;5037811;28;20128;-69
2021/09/01 07:23:20;;;;;;;15.18;5.13;;;16.70;99.90;;;;;;5043952;28;20033;-69
2021/09/01 07:25:46;;;;;;;19.20;4.70;;;16.70;99.90;;;;;;5051720;28;20056;-69
2021/09/01 07:28:12;;;;;;;19.40;5.35;;;16.70;99.90;;;;;;5048003;28;20041;-69
2021/09/01 07:30:38;;;;;;;20.63;5.15;;;16.70;99.90;;;;;;5049167;28;20041;-69
2021/09/01 07:33:03;;;;;;;26.63;5.03;;;16.80;99.90;;;;;;5035384;28;20050;-70
2021/09/01 07:35:29;;;;;;;16.95;5.28;;;16.80;99.90;;;;;;5039603;28;20049;-69
2021/09/01 07:37:55;;;;;;;14.65;4.72;;;16.80;99.90;;;;;;5041900;28;20034;-69
2021/09/01 07:40:23;;;;;;;14.15;4.20;;;16.80;99.90;;;;;;5042644;28;20612;-69
2021/09/01 07:42:48;;;;;;;;;;;16.80;99.90;;;;;;5049474;28;20029;-70
2021/09/01 07:45:15;;;;;;;13.68;4.53;;;16.90;99.90;;;;;;5042887;28;20348;-69
2021/09/01 07:47:52;;;;;;;15.65;5.40;;;16.90;99.90;;;;;;5046066;28;20042;-69
2021/09/01 07:50:20;;;;;;;11.68;4.10;;;17.00;99.90;;;;;;5035010;28;20053;-69
2021/09/01 07:52:46;;;;;;;15.57;5.00;;;17.00;99.90;;;;;;5037045;28;20033;-69
2021/09/01 07:55:12;;;;;;;18.40;5.15;;;17.10;99.90;;;;;;5042136;28;20056;-69
2021/09/01 07:57:39;;;;;;;17.55;4.50;;;17.10;99.90;;;;;;5033382;28;20045;-69
2021/09/01 08:00:07;;;;;;;24.92;5.20;;;17.10;99.90;;;;;;5039830;28;20041;-69
2021/09/01 08:02:33;;;;;;;15.95;4.82;;;17.10;99.90;;;;;;5042774;28;20057;-69
2021/09/01 08:04:59;;;;;;;10.20;4.57;;;17.10;99.90;;;;;;5035925;28;20057;-69
2021/09/01 08:07:25;;;;;;;16.67;4.32;;;17.10;99.90;;;;;;5036511;28;20060;-69
2021/09/01 08:09:50;;;;;;;19.70;5.25;;;17.10;99.90;;;;;;5039077;28;20061;-69
2021/09/01 08:12:16;;;;;;;19.60;4.40;;;17.10;99.90;;;;;;5045680;28;20386;-69
2021/09/01 08:14:42;;;;;;;20.95;5.13;;;17.10;99.90;;;;;;5039076;28;20052;-69
2021/09/01 08:17:07;;;;;;;14.82;4.15;;;17.20;99.90;;;;;;5042506;28;20079;-69
2021/09/01 08:19:33;;;;;;;21.63;4.38;;;17.20;99.90;;;;;;5036504;28;20074;-69
2021/09/01 08:21:59;;;;;;;17.33;4.85;;;17.20;99.90;;;;;;5034951;28;20059;-69
2021/09/01 08:24:25;;;;;;;13.95;4.60;;;17.20;99.90;;;;;;5046227;28;20046;-69
2021/09/01 08:26:50;;;;;;;14.73;4.88;;;17.30;99.90;;;;;;5036782;28;20034;-69
2021/09/01 08:29:16;;;;;;;13.90;5.38;;;17.20;99.90;;;;;;5043013;28;20050;-69
2021/09/01 08:31:42;;;;;;;17.13;4.65;;;17.40;99.90;;;;;;5035458;28;20041;-69
2021/09/01 08:34:07;;;;;;;14.13;4.78;;;17.40;99.90;;;;;;5040721;28;20402;-69
2021/09/01 08:36:33;;;;;;;18.77;6.35;;;17.50;99.90;;;;;;5039165;28;20045;-69
2021/09/01 08:38:59;;;;;;;19.95;5.45;;;17.50;99.90;;;;;;5032096;28;20038;-69
2021/09/01 08:41:27;;;;;;;14.73;4.65;;;17.60;99.90;;;;;;5040274;28;20046;-69
2021/09/01 08:43:55;;;;;;;14.02;4.93;;;17.70;99.90;;;;;;5040305;28;20069;-69
2021/09/01 08:46:21;;;;;;;15.30;4.80;;;17.70;99.90;;;;;;5041520;28;20068;-69
2021/09/01 08:48:50;;;;;;;13.80;4.93;;;17.80;99.90;;;;;;5035705;28;20053;-69
2021/09/01 08:51:17;;;;;;;13.90;4.03;;;17.90;99.90;;;;;;5035419;28;20097;-75
2021/09/01 08:53:43;;;;;;;16.75;4.35;;;17.80;99.90;;;;;;5043260;28;20044;-71
2021/09/01 08:56:09;;;;;;;12.43;4.60;;;17.90;99.90;;;;;;5038383;28;20119;-70
2021/09/01 08:58:35;;;;;;;12.40;4.18;;;17.90;99.90;;;;;;5040351;28;20050;-73
2021/09/01 09:01:00;;;;;;;12.18;4.18;;;18.00;99.90;;;;;;5060637;28;20041;-70
2021/09/01 09:03:28;;;;;;;14.85;4.07;;;18.00;99.90;;;;;;5043278;28;20091;-69
2021/09/01 09:06:01;;;;;;;15.85;4.47;;;18.00;99.90;;;;;;5043644;28;20072;-70
2021/09/01 09:08:32;;;;;;;13.27;4.10;;;18.10;99.90;;;;;;5042025;28;20174;-70
2021/09/01 09:10:58;;;;;;;10.48;4.00;;;18.20;99.90;;;;;;5047562;28;20025;-70
2021/09/01 09:13:33;;;;;;;13.77;4.35;;;18.20;99.90;;;;;;5046650;28;20112;-64
2021/09/01 09:16:08;;;;;;;10.07;4.03;;;18.40;99.90;;;;;;5044111;28;20053;-69
2021/09/01 09:18:35;;;;;;;18.27;5.05;;;18.40;99.90;;;;;;5043139;28;20075;-72
2021/09/01 09:21:33;;;;;;;16.38;3.88;;;18.50;99.90;;;;;;5046521;28;20045;-70
2021/09/01 09:23:59;;;;;;;19.85;5.13;;;18.60;99.90;;;;;;5044401;28;20443;-72
2021/09/01 09:26:29;;;;;;;15.05;4.38;;;18.60;99.90;;;;;;5047941;28;20522;-73
2021/09/01 09:29:24;;;;;;;18.73;5.47;;;18.70;99.90;;;;;;5047409;28;20044;-72
2021/09/01 09:32:01;;;;;;;17.90;4.70;;;18.70;99.90;;;;;;5046173;28;20096;-72
2021/09/01 09:34:43;;;;;;;17.15;3.70;;;18.90;99.90;;;;;;5051802;28;20057;-68
2021/09/01 09:37:13;;;;;;;11.60;3.85;;;18.90;99.90;;;;;;5034847;28;20064;-73
2021/09/01 09:39:51;;;;;;;13.55;4.65;;;18.90;99.90;;;;;;5051090;28;20040;-72
2021/09/01 09:42:35;;;;;;;20.52;4.53;;;19.00;99.90;;;;;;5049074;28;20594;-69
2021/09/01 09:45:26;;;;;;;14.18;3.97;;;19.00;99.90;;;;;;5048201;28;20075;-64
2021/09/01 09:47:56;;;;;;;10.63;4.10;;;19.20;99.90;;;;;;5050761;28;20069;-72
2021/09/01 09:50:23;;;;;;;9.63;3.55;;;19.30;99.90;;;;;;5045301;28;20049;-67
2021/09/01 09:52:50;;;;;;;12.75;3.70;;;19.30;99.90;;;;;;5032753;28;20038;-69
2021/09/01 09:55:21;;;;;;;10.77;3.63;;;19.30;99.90;;;;;;5052714;28;20150;-69
2021/09/01 09:57:55;;;;;;;12.15;3.38;;;19.50;99.90;;;;;;5046483;28;20378;-66
2021/09/01 10:00:22;;;;;;;13.00;4.07;;;19.70;99.90;;;;;;5031343;28;20057;-66
2021/09/01 10:02:48;;;;;;;16.42;3.83;;;19.70;99.90;;;;;;5051104;28;20053;-69
2021/09/01 10:05:19;;;;;;;12.32;3.20;;;19.90;99.90;;;;;;5052236;28;20098;-68
2021/09/01 10:07:46;;;;;;;13.68;3.55;;;19.90;99.90;;;;;;5047385;28;20057;-65
2021/09/01 10:10:12;;;;;;;11.90;3.38;;;19.80;99.90;;;;;;5042846;28;20398;-72
2021/09/01 10:12:43;;;;;;;12.70;3.67;;;19.70;99.90;;;;;;5047273;28;20042;-74
2021/09/01 10:15:13;;;;;;;11.73;3.75;;;19.60;99.90;;;;;;5044247;28;20075;-66
2021/09/01 10:17:44;;;;;;;15.85;3.70;;;19.60;99.90;;;;;;5044377;28;20077;-73
2021/09/01 10:20:15;;;;;;;10.98;3.65;;;19.00;99.90;;;;;;5048930;28;20064;-67
2021/09/01 10:22:41;;;;;;;11.20;4.22;;;19.10;99.90;;;;;;5040764;28;20624;-74
2021/09/01 10:25:07;;;;;;;14.35;3.70;;;19.00;99.90;;;;;;5050258;28;20042;-72
2021/09/01 10:27:33;;;;;;;9.65;3.58;;;18.90;99.90;;;;;;5045389;28;20042;-69
2021/09/01 10:30:05;;;;;;;13.48;3.70;;;19.00;99.90;;;;;;5051663;28;20075;-66
2021/09/01 10:32:41;;;;;;;10.55;3.95;;;19.00;99.90;;;;;;5052564;28;20393;-66
2021/09/01 10:35:16;;;;;;;10.93;3.53;;;18.80;99.90;;;;;;5045402;28;20087;-70
2021/09/01 10:37:55;;;;;;;15.30;3.63;;;18.80;99.90;;;;;;5045431;28;20084;-67
2021/09/01 10:40:21;;;;;;;13.02;3.75;;;18.90;99.90;;;;;;5046486;28;20052;-70
2021/09/01 10:42:51;;;;;;;9.45;4.03;;;19.00;99.90;;;;;;5043802;28;20042;-66
2021/09/01 10:45:21;;;;;;;8.68;3.15;;;19.00;99.90;;;;;;5044640;28;20057;-64
2021/09/01 10:47:50;;;;;;;11.57;3.85;;;19.10;99.90;;;;;;5049048;28;20053;-66
2021/09/01 10:50:40;;;;;;;11.38;3.00;;;19.00;99.90;;;;;;5058827;28;20068;-70
2021/09/01 10:53:15;;;;;;;17.33;4.00;;;19.20;99.90;;;;;;5044711;28;20409;-71
2021/09/01 10:55:55;;;;;;;8.80;3.13;;;19.10;99.90;;;;;;5042105;28;20037;-67
2021/09/01 10:58:39;;;;;;;10.18;3.10;;;19.30;99.90;;;;;;5046469;28;20056;-72
2021/09/01 11:01:23;;;;;;;8.23;3.38;;;19.30;99.90;;;;;;5045928;28;20084;-69
2021/09/01 11:04:04;;;;;;;10.65;3.15;;;19.30;99.90;;;;;;5041104;28;20393;-70
2021/09/01 11:06:35;;;;;;;15.48;3.53;;;19.30;99.90;;;;;;5042045;28;20041;-76
2021/09/01 11:09:04;;;;;;;10.07;3.17;;;19.30;99.90;;;;;;5043695;28;20038;-70
2021/09/01 11:11:41;;;;;;;6.88;2.55;;;19.40;99.90;;;;;;5045359;28;20510;-70
2021/09/01 11:14:07;;;;;;;9.10;3.22;;;19.20;99.90;;;;;;5073254;28;20103;-71
2021/09/01 11:16:33;;;;;;;9.98;3.03;;;19.10;99.90;;;;;;5039436;28;20137;-70
2021/09/01 11:19:00;;;;;;;13.45;4.55;;;19.20;99.90;;;;;;5044147;28;20150;-70
2021/09/01 11:21:29;;;;;;;14.32;3.50;;;19.20;99.90;;;;;;5048941;28;20041;-73
2021/09/01 11:24:00;;;;;;;7.80;3.28;;;19.30;99.90;;;;;;5039553;28;20057;-77
2021/09/01 11:26:30;;;;;;;14.25;3.97;;;19.40;99.90;;;;;;5042986;28;20099;-68
2021/09/01 11:28:57;;;;;;;16.50;3.60;;;19.40;99.90;;;;;;5041172;28;20042;-70
2021/09/01 11:31:24;;;;;;;12.48;4.10;;;19.50;99.90;;;;;;5044229;28;20046;-69
2021/09/01 11:33:56;;;;;;;9.98;3.28;;;19.50;99.90;;;;;;5044675;28;20061;-70
2021/09/01 11:36:24;;;;;;;9.10;3.20;;;19.50;99.90;;;;;;5077855;28;20189;-72
2021/09/01 11:38:51;;;;;;;13.25;3.20;;;19.40;99.90;;;;;;5041937;28;20049;-76
2021/09/01 11:41:21;;;;;;;15.95;3.63;;;19.20;99.90;;;;;;5044509;28;20045;-66
2021/09/01 11:43:57;;;;;;;12.90;3.85;;;19.20;99.90;;;;;;5045608;28;20072;-72
2021/09/01 11:46:22;;;;;;;10.27;3.80;;;19.00;99.90;;;;;;5050490;28;20527;-71
2021/09/01 11:48:48;;;;;;;11.05;3.50;;;18.80;99.90;;;;;;5044760;28;20060;-69
2021/09/01 11:51:18;;;;;;;12.98;3.88;;;18.80;99.90;;;;;;5031095;28;20050;-67
2021/09/01 11:53:44;;;;;;;11.50;3.75;;;18.80;99.90;;;;;;5045751;28;20048;-70
2021/09/01 11:56:11;;;;;;;9.45;3.25;;;18.80;99.90;;;;;;5036630;28;20073;-69
2021/09/01 11:58:36;;;;;;;10.75;3.55;;;18.90;99.90;;;;;;5043350;28;20045;-69
2021/09/01 12:01:10;;;;;;;16.00;3.22;;;18.90;99.90;;;;;;5038218;28;20049;-69
2021/09/01 12:03:36;;;;;;;13.55;4.72;;;18.90;99.90;;;;;;5038053;28;20509;-69
2021/09/01 12:06:09;;;;;;;11.15;3.33;;;18.70;99.90;;;;;;5034043;28;20044;-68
2021/09/01 12:08:50;;;;;;;13.52;3.08;;;18.70;99.90;;;;;;5043496;28;20041;-68
2021/09/01 12:11:17;;;;;;;9.82;3.25;;;18.80;99.90;;;;;;5034337;28;20049;-69
2021/09/01 12:13:47;;;;;;;13.82;3.58;;;19.00;99.90;;;;;;5038982;28;20037;-69
2021/09/01 12:16:14;;;;;;;6.82;2.63;;;18.90;99.90;;;;;;5044053;28;20056;-68
2021/09/01 12:18:55;;;;;;;13.57;3.60;;;18.80;99.90;;;;;;5031033;28;20552;-69
2021/09/01 12:21:23;;;;;;;9.60;3.40;;;18.80;99.90;;;;;;5043473;28;20041;-68
2021/09/01 12:24:08;;;;;;;7.82;2.80;;;18.90;99.90;;;;;;5040817;28;20042;-68
2021/09/01 12:26:54;;;;;;;13.15;3.47;;;18.90;99.90;;;;;;5055670;28;20045;-68
2021/09/01 12:29:24;;;;;;;11.20;2.95;;;18.70;99.90;;;;;;5042697;28;20041;-68
2021/09/01 12:31:52;;;;;;;9.15;3.15;;;19.00;99.90;;;;;;5051582;28;20073;-68
2021/09/01 12:34:25;;;;;;;16.75;3.47;;;19.20;99.90;;;;;;5046344;28;20048;-68
2021/09/01 12:37:00;;;;;;;9.15;2.95;;;18.80;99.90;;;;;;5054409;28;20129;-68
2021/09/01 12:39:25;;;;;;;12.75;3.38;;;18.90;99.90;;;;;;5061693;28;20084;-68
2021/09/01 12:41:51;;;;;;;11.63;3.00;;;18.90;99.90;;;;;;5054709;28;20045;-68
2021/09/01 12:44:17;;;;;;;8.95;2.85;;;19.00;99.90;;;;;;5032421;28;20064;-68